sensor_id;sensor_type;location;lat;lon;timestamp;P1;durP1;ratioP1;P2;durP2;ratioP2
72325;SDS011;60278;47.980;18.780;2022-07-23T00:03:19;7.35;;;4.30;;
72325;SDS011;60278;47.980;18.780;2022-07-23T00:06:50;7.53;;;3.60;;
72325;SDS011;60278;47.980;18.780;2022-07-23T00:10:21;8.63;;;4.20;;
72325;SDS011;60278;47.980;18.780;2022-07-23T00:13:53;6.35;;;3.70;;
72325;SDS011;60278;47.980;18.780;2022-07-23T00:17:25;7.60;;;3.90;;
72325;SDS011;60278;47.980;18.780;2022-07-23T00:20:56;9.53;;;3.83;;
72325;SDS011;60278;47.980;18.780;2022-07-23T00:24:27;9.30;;;4.57;;
72325;SDS011;60278;47.980;18.780;2022-07-23T00:27:59;11.60;;;4.43;;
72325;SDS011;60278;47.980;18.780;2022-07-23T00:31:31;12.27;;;5.43;;
72325;SDS011;60278;47.980;18.780;2022-07-23T00:35:02;12.18;;;4.63;;
72325;SDS011;60278;47.980;18.780;2022-07-23T00:38:33;13.80;;;4.60;;
72325;SDS011;60278;47.980;18.780;2022-07-23T00:42:04;11.47;;;4.10;;
72325;SDS011;60278;47.980;18.780;2022-07-23T00:45:36;8.82;;;4.03;;
72325;SDS011;60278;47.980;18.780;2022-07-23T00:49:07;7.32;;;3.88;;
72325;SDS011;60278;47.980;18.780;2022-07-23T00:52:39;7.50;;;4.13;;
72325;SDS011;60278;47.980;18.780;2022-07-23T00:56:10;10.43;;;4.10;;
72325;SDS011;60278;47.980;18.780;2022-07-23T00:59:42;9.17;;;4.37;;
72325;SDS011;60278;47.980;18.780;2022-07-23T01:03:13;6.50;;;3.97;;
72325;SDS011;60278;47.980;18.780;2022-07-23T01:06:44;12.07;;;3.90;;
72325;SDS011;60278;47.980;18.780;2022-07-23T01:10:15;8.23;;;4.28;;
72325;SDS011;60278;47.980;18.780;2022-07-23T01:14:08;10.10;;;3.77;;
72325;SDS011;60278;47.980;18.780;2022-07-23T01:17:46;9.63;;;3.85;;
72325;SDS011;60278;47.980;18.780;2022-07-23T01:21:17;10.55;;;4.40;;
72325;SDS011;60278;47.980;18.780;2022-07-23T01:24:49;11.68;;;4.47;;
72325;SDS011;60278;47.980;18.780;2022-07-23T01:28:25;7.20;;;4.37;;
72325;SDS011;60278;47.980;18.780;2022-07-23T01:31:57;6.57;;;4.20;;
72325;SDS011;60278;47.980;18.780;2022-07-23T01:35:28;8.15;;;3.97;;
72325;SDS011;60278;47.980;18.780;2022-07-23T01:39:05;15.05;;;3.95;;
72325;SDS011;60278;47.980;18.780;2022-07-23T01:42:36;8.33;;;3.80;;
72325;SDS011;60278;47.980;18.780;2022-07-23T01:46:08;9.10;;;3.57;;
72325;SDS011;60278;47.980;18.780;2022-07-23T01:49:45;9.77;;;4.07;;
72325;SDS011;60278;47.980;18.780;2022-07-23T01:53:42;7.28;;;4.07;;
72325;SDS011;60278;47.980;18.780;2022-07-23T01:57:14;9.50;;;3.92;;
72325;SDS011;60278;47.980;18.780;2022-07-23T02:00:45;11.13;;;4.10;;
72325;SDS011;60278;47.980;18.780;2022-07-23T02:04:16;8.63;;;3.85;;
72325;SDS011;60278;47.980;18.780;2022-07-23T02:07:48;7.53;;;4.18;;
72325;SDS011;60278;47.980;18.780;2022-07-23T02:11:19;12.95;;;4.32;;
72325;SDS011;60278;47.980;18.780;2022-07-23T02:14:50;10.03;;;4.23;;
72325;SDS011;60278;47.980;18.780;2022-07-23T02:18:21;12.55;;;4.45;;
72325;SDS011;60278;47.980;18.780;2022-07-23T02:21:52;8.43;;;4.03;;
72325;SDS011;60278;47.980;18.780;2022-07-23T02:25:25;9.45;;;4.63;;
72325;SDS011;60278;47.980;18.780;2022-07-23T02:29:02;6.83;;;4.03;;
72325;SDS011;60278;47.980;18.780;2022-07-23T02:32:34;10.98;;;4.00;;
72325;SDS011;60278;47.980;18.780;2022-07-23T02:36:06;9.15;;;3.92;;
72325;SDS011;60278;47.980;18.780;2022-07-23T02:39:37;9.50;;;4.70;;
72325;SDS011;60278;47.980;18.780;2022-07-23T02:43:08;11.13;;;4.20;;
72325;SDS011;60278;47.980;18.780;2022-07-23T02:46:39;8.95;;;3.90;;
72325;SDS011;60278;47.980;18.780;2022-07-23T02:50:10;11.32;;;4.35;;
72325;SDS011;60278;47.980;18.780;2022-07-23T02:53:43;8.20;;;4.30;;
72325;SDS011;60278;47.980;18.780;2022-07-23T02:57:14;10.17;;;4.53;;
72325;SDS011;60278;47.980;18.780;2022-07-23T03:00:46;7.17;;;3.97;;
72325;SDS011;60278;47.980;18.780;2022-07-23T03:04:18;10.07;;;4.70;;
72325;SDS011;60278;47.980;18.780;2022-07-23T03:07:49;12.25;;;4.40;;
72325;SDS011;60278;47.980;18.780;2022-07-23T03:11:20;7.63;;;4.50;;
72325;SDS011;60278;47.980;18.780;2022-07-23T03:14:53;9.03;;;4.20;;
72325;SDS011;60278;47.980;18.780;2022-07-23T03:18:24;12.05;;;4.45;;
72325;SDS011;60278;47.980;18.780;2022-07-23T03:21:55;13.88;;;4.97;;
72325;SDS011;60278;47.980;18.780;2022-07-23T03:25:26;10.32;;;4.50;;
72325;SDS011;60278;47.980;18.780;2022-07-23T03:28:57;10.93;;;4.23;;
72325;SDS011;60278;47.980;18.780;2022-07-23T03:32:29;12.88;;;4.70;;
72325;SDS011;60278;47.980;18.780;2022-07-23T03:36:00;7.95;;;4.25;;
72325;SDS011;60278;47.980;18.780;2022-07-23T03:39:35;10.03;;;4.93;;
72325;SDS011;60278;47.980;18.780;2022-07-23T03:43:06;9.43;;;4.80;;
72325;SDS011;60278;47.980;18.780;2022-07-23T03:46:37;13.50;;;4.32;;
72325;SDS011;60278;47.980;18.780;2022-07-23T03:50:08;13.43;;;4.70;;
72325;SDS011;60278;47.980;18.780;2022-07-23T03:53:40;11.18;;;4.60;;
72325;SDS011;60278;47.980;18.780;2022-07-23T03:57:11;11.53;;;4.50;;
72325;SDS011;60278;47.980;18.780;2022-07-23T04:00:42;8.07;;;4.43;;
72325;SDS011;60278;47.980;18.780;2022-07-23T04:04:13;9.45;;;4.28;;
72325;SDS011;60278;47.980;18.780;2022-07-23T04:07:45;8.75;;;4.88;;
72325;SDS011;60278;47.980;18.780;2022-07-23T04:11:16;13.00;;;4.30;;
72325;SDS011;60278;47.980;18.780;2022-07-23T04:14:47;9.60;;;4.63;;
72325;SDS011;60278;47.980;18.780;2022-07-23T04:18:18;12.77;;;4.95;;
72325;SDS011;60278;47.980;18.780;2022-07-23T04:22:09;11.73;;;4.60;;
72325;SDS011;60278;47.980;18.780;2022-07-23T04:25:41;9.47;;;4.83;;
72325;SDS011;60278;47.980;18.780;2022-07-23T04:29:12;7.35;;;4.20;;
72325;SDS011;60278;47.980;18.780;2022-07-23T04:32:43;9.52;;;4.50;;
72325;SDS011;60278;47.980;18.780;2022-07-23T04:36:22;11.27;;;4.00;;
72325;SDS011;60278;47.980;18.780;2022-07-23T04:39:53;11.63;;;4.20;;
72325;SDS011;60278;47.980;18.780;2022-07-23T04:43:25;18.70;;;4.33;;
72325;SDS011;60278;47.980;18.780;2022-07-23T04:46:58;13.13;;;4.43;;
72325;SDS011;60278;47.980;18.780;2022-07-23T04:50:29;10.63;;;4.15;;
72325;SDS011;60278;47.980;18.780;2022-07-23T04:54:02;11.80;;;4.45;;
72325;SDS011;60278;47.980;18.780;2022-07-23T04:57:34;13.73;;;4.77;;
72325;SDS011;60278;47.980;18.780;2022-07-23T05:01:05;7.50;;;4.50;;
72325;SDS011;60278;47.980;18.780;2022-07-23T05:04:38;9.82;;;4.60;;
72325;SDS011;60278;47.980;18.780;2022-07-23T05:08:09;9.38;;;4.22;;
72325;SDS011;60278;47.980;18.780;2022-07-23T05:11:42;8.60;;;4.10;;
72325;SDS011;60278;47.980;18.780;2022-07-23T05:15:14;6.93;;;4.03;;
72325;SDS011;60278;47.980;18.780;2022-07-23T05:18:45;13.68;;;5.28;;
72325;SDS011;60278;47.980;18.780;2022-07-23T05:22:16;7.85;;;4.68;;
72325;SDS011;60278;47.980;18.780;2022-07-23T05:25:47;10.63;;;3.80;;
72325;SDS011;60278;47.980;18.780;2022-07-23T05:29:19;8.73;;;4.33;;
72325;SDS011;60278;47.980;18.780;2022-07-23T05:32:50;7.73;;;4.37;;
72325;SDS011;60278;47.980;18.780;2022-07-23T05:36:22;7.65;;;3.95;;
72325;SDS011;60278;47.980;18.780;2022-07-23T05:40:01;9.63;;;4.40;;
72325;SDS011;60278;47.980;18.780;2022-07-23T05:43:38;9.75;;;4.25;;
72325;SDS011;60278;47.980;18.780;2022-07-23T05:47:14;6.73;;;4.40;;
72325;SDS011;60278;47.980;18.780;2022-07-23T05:50:46;10.88;;;4.20;;
72325;SDS011;60278;47.980;18.780;2022-07-23T05:54:37;8.27;;;4.00;;
72325;SDS011;60278;47.980;18.780;2022-07-23T05:58:08;10.05;;;3.67;;
72325;SDS011;60278;47.980;18.780;2022-07-23T06:01:40;11.75;;;4.40;;
72325;SDS011;60278;47.980;18.780;2022-07-23T06:05:14;11.67;;;4.17;;
72325;SDS011;60278;47.980;18.780;2022-07-23T06:08:45;9.63;;;4.22;;
72325;SDS011;60278;47.980;18.780;2022-07-23T06:12:18;8.57;;;4.35;;
72325;SDS011;60278;47.980;18.780;2022-07-23T06:15:49;9.40;;;4.65;;
72325;SDS011;60278;47.980;18.780;2022-07-23T06:19:20;14.32;;;4.15;;
72325;SDS011;60278;47.980;18.780;2022-07-23T06:22:51;11.43;;;4.30;;
72325;SDS011;60278;47.980;18.780;2022-07-23T06:26:22;8.52;;;4.57;;
72325;SDS011;60278;47.980;18.780;2022-07-23T06:29:53;8.60;;;4.25;;
72325;SDS011;60278;47.980;18.780;2022-07-23T06:33:24;10.73;;;4.72;;
72325;SDS011;60278;47.980;18.780;2022-07-23T06:36:55;10.40;;;4.60;;
72325;SDS011;60278;47.980;18.780;2022-07-23T06:40:26;8.10;;;4.18;;
72325;SDS011;60278;47.980;18.780;2022-07-23T06:43:58;11.93;;;3.63;;
72325;SDS011;60278;47.980;18.780;2022-07-23T06:47:31;11.10;;;4.53;;
72325;SDS011;60278;47.980;18.780;2022-07-23T06:51:03;7.35;;;4.35;;
72325;SDS011;60278;47.980;18.780;2022-07-23T06:54:34;9.93;;;4.20;;
72325;SDS011;60278;47.980;18.780;2022-07-23T06:58:05;11.77;;;4.45;;
72325;SDS011;60278;47.980;18.780;2022-07-23T07:01:36;10.25;;;3.83;;
72325;SDS011;60278;47.980;18.780;2022-07-23T07:05:07;11.70;;;4.40;;
72325;SDS011;60278;47.980;18.780;2022-07-23T07:08:39;7.28;;;3.88;;
72325;SDS011;60278;47.980;18.780;2022-07-23T07:12:10;8.23;;;3.97;;
72325;SDS011;60278;47.980;18.780;2022-07-23T07:15:42;12.95;;;3.90;;
72325;SDS011;60278;47.980;18.780;2022-07-23T07:19:13;11.40;;;4.60;;
72325;SDS011;60278;47.980;18.780;2022-07-23T07:22:44;6.90;;;4.22;;
72325;SDS011;60278;47.980;18.780;2022-07-23T07:26:15;9.15;;;4.10;;
72325;SDS011;60278;47.980;18.780;2022-07-23T07:29:47;9.53;;;4.07;;
72325;SDS011;60278;47.980;18.780;2022-07-23T07:33:18;7.88;;;4.05;;
72325;SDS011;60278;47.980;18.780;2022-07-23T07:36:49;9.13;;;3.70;;
72325;SDS011;60278;47.980;18.780;2022-07-23T07:40:20;9.27;;;3.70;;
72325;SDS011;60278;47.980;18.780;2022-07-23T07:43:51;6.97;;;3.65;;
72325;SDS011;60278;47.980;18.780;2022-07-23T07:47:23;6.73;;;3.70;;
72325;SDS011;60278;47.980;18.780;2022-07-23T07:50:54;9.57;;;4.10;;
72325;SDS011;60278;47.980;18.780;2022-07-23T07:54:25;11.07;;;4.10;;
72325;SDS011;60278;47.980;18.780;2022-07-23T07:57:56;9.43;;;3.75;;
72325;SDS011;60278;47.980;18.780;2022-07-23T08:01:27;8.30;;;4.25;;
72325;SDS011;60278;47.980;18.780;2022-07-23T08:04:58;7.80;;;4.17;;
72325;SDS011;60278;47.980;18.780;2022-07-23T08:08:29;11.07;;;4.03;;
72325;SDS011;60278;47.980;18.780;2022-07-23T08:12:00;9.73;;;3.97;;
72325;SDS011;60278;47.980;18.780;2022-07-23T08:15:31;9.60;;;3.78;;
72325;SDS011;60278;47.980;18.780;2022-07-23T08:19:02;8.80;;;3.80;;
72325;SDS011;60278;47.980;18.780;2022-07-23T08:22:43;7.03;;;4.03;;
72325;SDS011;60278;47.980;18.780;2022-07-23T08:26:15;9.77;;;4.20;;
72325;SDS011;60278;47.980;18.780;2022-07-23T08:29:46;9.57;;;4.00;;
72325;SDS011;60278;47.980;18.780;2022-07-23T08:33:18;8.48;;;3.78;;
72325;SDS011;60278;47.980;18.780;2022-07-23T08:36:49;9.15;;;3.80;;
72325;SDS011;60278;47.980;18.780;2022-07-23T08:40:20;14.32;;;3.72;;
72325;SDS011;60278;47.980;18.780;2022-07-23T08:43:52;9.27;;;3.73;;
72325;SDS011;60278;47.980;18.780;2022-07-23T08:47:23;7.90;;;3.72;;
72325;SDS011;60278;47.980;18.780;2022-07-23T08:50:57;8.30;;;3.45;;
72325;SDS011;60278;47.980;18.780;2022-07-23T08:54:29;9.27;;;3.47;;
72325;SDS011;60278;47.980;18.780;2022-07-23T08:58:01;7.37;;;3.33;;
72325;SDS011;60278;47.980;18.780;2022-07-23T09:01:32;6.97;;;3.65;;
72325;SDS011;60278;47.980;18.780;2022-07-23T09:05:03;17.25;;;3.90;;
72325;SDS011;60278;47.980;18.780;2022-07-23T09:08:38;6.20;;;3.53;;
72325;SDS011;60278;47.980;18.780;2022-07-23T09:12:10;9.83;;;3.63;;
72325;SDS011;60278;47.980;18.780;2022-07-23T09:15:51;11.45;;;3.80;;
72325;SDS011;60278;47.980;18.780;2022-07-23T09:19:27;9.00;;;3.55;;
72325;SDS011;60278;47.980;18.780;2022-07-23T09:22:58;11.03;;;3.83;;
72325;SDS011;60278;47.980;18.780;2022-07-23T09:30:15;10.75;;;3.83;;
72325;SDS011;60278;47.980;18.780;2022-07-23T09:33:47;6.70;;;3.90;;
72325;SDS011;60278;47.980;18.780;2022-07-23T09:37:18;10.77;;;3.83;;
72325;SDS011;60278;47.980;18.780;2022-07-23T09:41:06;8.03;;;3.57;;
72325;SDS011;60278;47.980;18.780;2022-07-23T09:44:40;6.40;;;3.97;;
72325;SDS011;60278;47.980;18.780;2022-07-23T09:48:13;7.05;;;3.90;;
72325;SDS011;60278;47.980;18.780;2022-07-23T09:51:47;8.88;;;3.92;;
72325;SDS011;60278;47.980;18.780;2022-07-23T09:55:18;6.03;;;3.63;;
72325;SDS011;60278;47.980;18.780;2022-07-23T09:58:50;9.07;;;3.83;;
72325;SDS011;60278;47.980;18.780;2022-07-23T10:02:42;8.93;;;4.20;;
72325;SDS011;60278;47.980;18.780;2022-07-23T10:06:32;9.40;;;4.30;;
72325;SDS011;60278;47.980;18.780;2022-07-23T10:10:23;8.93;;;4.20;;
72325;SDS011;60278;47.980;18.780;2022-07-23T10:14:15;8.48;;;5.07;;
72325;SDS011;60278;47.980;18.780;2022-07-23T10:18:09;7.47;;;4.38;;
72325;SDS011;60278;47.980;18.780;2022-07-23T10:21:47;12.70;;;4.70;;
72325;SDS011;60278;47.980;18.780;2022-07-23T10:25:22;9.63;;;4.53;;
72325;SDS011;60278;47.980;18.780;2022-07-23T10:32:55;8.13;;;4.80;;
72325;SDS011;60278;47.980;18.780;2022-07-23T10:36:32;7.30;;;4.63;;
72325;SDS011;60278;47.980;18.780;2022-07-23T10:40:20;7.60;;;4.73;;
72325;SDS011;60278;47.980;18.780;2022-07-23T10:44:05;5.90;;;4.03;;
72325;SDS011;60278;47.980;18.780;2022-07-23T10:47:40;8.30;;;4.22;;
72325;SDS011;60278;47.980;18.780;2022-07-23T10:51:15;7.72;;;4.78;;
72325;SDS011;60278;47.980;18.780;2022-07-23T10:54:48;9.60;;;4.73;;
72325;SDS011;60278;47.980;18.780;2022-07-23T10:58:23;8.98;;;4.18;;
72325;SDS011;60278;47.980;18.780;2022-07-23T11:02:21;9.45;;;4.03;;
72325;SDS011;60278;47.980;18.780;2022-07-23T11:05:53;11.18;;;4.25;;
72325;SDS011;60278;47.980;18.780;2022-07-23T11:13:25;8.73;;;3.70;;
72325;SDS011;60278;47.980;18.780;2022-07-23T11:16:51;9.50;;;4.40;;
72325;SDS011;60278;47.980;18.780;2022-07-23T11:20:25;7.75;;;4.18;;
72325;SDS011;60278;47.980;18.780;2022-07-23T11:31:16;8.02;;;3.85;;
72325;SDS011;60278;47.980;18.780;2022-07-23T11:34:49;22.33;;;4.72;;
72325;SDS011;60278;47.980;18.780;2022-07-23T11:38:22;12.13;;;4.93;;
72325;SDS011;60278;47.980;18.780;2022-07-23T11:41:54;5.60;;;4.27;;
72325;SDS011;60278;47.980;18.780;2022-07-23T11:45:29;8.02;;;4.45;;
72325;SDS011;60278;47.980;18.780;2022-07-23T11:49:05;11.73;;;4.93;;
72325;SDS011;60278;47.980;18.780;2022-07-23T11:52:36;7.72;;;4.72;;
72325;SDS011;60278;47.980;18.780;2022-07-23T11:56:10;9.53;;;5.07;;
72325;SDS011;60278;47.980;18.780;2022-07-23T11:59:42;10.48;;;4.57;;
72325;SDS011;60278;47.980;18.780;2022-07-23T12:03:14;11.93;;;4.57;;
72325;SDS011;60278;47.980;18.780;2022-07-23T12:06:45;13.15;;;4.40;;
72325;SDS011;60278;47.980;18.780;2022-07-23T12:13:58;7.33;;;4.67;;
72325;SDS011;60278;47.980;18.780;2022-07-23T12:17:30;10.73;;;4.72;;
72325;SDS011;60278;47.980;18.780;2022-07-23T12:21:03;9.20;;;4.63;;
72325;SDS011;60278;47.980;18.780;2022-07-23T12:28:34;8.70;;;4.38;;
72325;SDS011;60278;47.980;18.780;2022-07-23T12:36:13;11.65;;;4.68;;
72325;SDS011;60278;47.980;18.780;2022-07-23T12:39:45;8.93;;;5.53;;
72325;SDS011;60278;47.980;18.780;2022-07-23T12:43:26;8.52;;;4.97;;
72325;SDS011;60278;47.980;18.780;2022-07-23T12:47:00;10.18;;;5.22;;
72325;SDS011;60278;47.980;18.780;2022-07-23T12:54:09;8.05;;;4.97;;
72325;SDS011;60278;47.980;18.780;2022-07-23T12:57:46;11.93;;;5.50;;
72325;SDS011;60278;47.980;18.780;2022-07-23T13:04:52;10.45;;;4.78;;
72325;SDS011;60278;47.980;18.780;2022-07-23T13:08:23;7.90;;;5.40;;
72325;SDS011;60278;47.980;18.780;2022-07-23T13:11:55;9.40;;;4.93;;
72325;SDS011;60278;47.980;18.780;2022-07-23T13:15:27;15.68;;;5.50;;
72325;SDS011;60278;47.980;18.780;2022-07-23T13:18:58;9.40;;;5.72;;
72325;SDS011;60278;47.980;18.780;2022-07-23T13:22:30;9.88;;;5.80;;
72325;SDS011;60278;47.980;18.780;2022-07-23T13:26:01;11.07;;;5.90;;
72325;SDS011;60278;47.980;18.780;2022-07-23T13:29:32;14.43;;;6.50;;
72325;SDS011;60278;47.980;18.780;2022-07-23T13:33:03;9.63;;;5.78;;
72325;SDS011;60278;47.980;18.780;2022-07-23T13:36:35;15.85;;;6.28;;
72325;SDS011;60278;47.980;18.780;2022-07-23T13:40:07;11.32;;;5.57;;
72325;SDS011;60278;47.980;18.780;2022-07-23T13:43:38;11.30;;;4.60;;
72325;SDS011;60278;47.980;18.780;2022-07-23T13:47:09;8.35;;;5.28;;
72325;SDS011;60278;47.980;18.780;2022-07-23T13:50:41;8.43;;;5.90;;
72325;SDS011;60278;47.980;18.780;2022-07-23T13:54:13;8.38;;;5.22;;
72325;SDS011;60278;47.980;18.780;2022-07-23T13:57:44;10.60;;;5.78;;
72325;SDS011;60278;47.980;18.780;2022-07-23T14:01:15;10.83;;;5.10;;
72325;SDS011;60278;47.980;18.780;2022-07-23T14:04:47;11.15;;;5.40;;
72325;SDS011;60278;47.980;18.780;2022-07-23T14:08:18;7.85;;;5.20;;
72325;SDS011;60278;47.980;18.780;2022-07-23T14:11:50;7.80;;;5.05;;
72325;SDS011;60278;47.980;18.780;2022-07-23T14:15:22;8.95;;;4.70;;
72325;SDS011;60278;47.980;18.780;2022-07-23T14:18:53;11.10;;;5.07;;
72325;SDS011;60278;47.980;18.780;2022-07-23T14:22:24;8.07;;;4.80;;
72325;SDS011;60278;47.980;18.780;2022-07-23T14:25:56;9.98;;;4.90;;
72325;SDS011;60278;47.980;18.780;2022-07-23T14:29:27;8.73;;;5.25;;
72325;SDS011;60278;47.980;18.780;2022-07-23T14:32:58;9.55;;;5.13;;
72325;SDS011;60278;47.980;18.780;2022-07-23T14:36:29;9.03;;;5.13;;
72325;SDS011;60278;47.980;18.780;2022-07-23T14:40:00;14.90;;;5.38;;
72325;SDS011;60278;47.980;18.780;2022-07-23T14:43:32;8.68;;;5.50;;
72325;SDS011;60278;47.980;18.780;2022-07-23T14:47:04;13.45;;;5.22;;
72325;SDS011;60278;47.980;18.780;2022-07-23T14:50:35;13.52;;;5.63;;
72325;SDS011;60278;47.980;18.780;2022-07-23T14:54:06;10.73;;;5.67;;
72325;SDS011;60278;47.980;18.780;2022-07-23T14:57:37;11.27;;;5.53;;
72325;SDS011;60278;47.980;18.780;2022-07-23T15:01:08;12.77;;;5.95;;
72325;SDS011;60278;47.980;18.780;2022-07-23T15:04:40;9.05;;;6.05;;
72325;SDS011;60278;47.980;18.780;2022-07-23T15:08:11;11.97;;;5.87;;
72325;SDS011;60278;47.980;18.780;2022-07-23T15:11:42;10.23;;;6.93;;
72325;SDS011;60278;47.980;18.780;2022-07-23T15:15:13;17.30;;;6.90;;
72325;SDS011;60278;47.980;18.780;2022-07-23T15:18:44;11.48;;;6.43;;
72325;SDS011;60278;47.980;18.780;2022-07-23T15:22:15;9.20;;;6.18;;
72325;SDS011;60278;47.980;18.780;2022-07-23T15:25:46;9.80;;;6.10;;
72325;SDS011;60278;47.980;18.780;2022-07-23T15:29:18;13.33;;;6.07;;
72325;SDS011;60278;47.980;18.780;2022-07-23T15:32:49;10.75;;;6.40;;
72325;SDS011;60278;47.980;18.780;2022-07-23T15:36:20;8.77;;;6.15;;
72325;SDS011;60278;47.980;18.780;2022-07-23T15:39:51;10.38;;;6.28;;
72325;SDS011;60278;47.980;18.780;2022-07-23T15:43:23;11.47;;;5.73;;
72325;SDS011;60278;47.980;18.780;2022-07-23T15:46:56;13.70;;;6.07;;
72325;SDS011;60278;47.980;18.780;2022-07-23T15:50:27;15.00;;;5.85;;
72325;SDS011;60278;47.980;18.780;2022-07-23T15:53:58;12.40;;;5.00;;
72325;SDS011;60278;47.980;18.780;2022-07-23T15:57:29;10.35;;;4.53;;
72325;SDS011;60278;47.980;18.780;2022-07-23T16:01:00;12.33;;;3.83;;
72325;SDS011;60278;47.980;18.780;2022-07-23T16:04:37;10.63;;;4.23;;
72325;SDS011;60278;47.980;18.780;2022-07-23T16:08:08;16.52;;;5.50;;
72325;SDS011;60278;47.980;18.780;2022-07-23T16:11:39;21.15;;;5.45;;
72325;SDS011;60278;47.980;18.780;2022-07-23T16:15:10;16.13;;;6.00;;
72325;SDS011;60278;47.980;18.780;2022-07-23T16:18:41;14.07;;;5.77;;
72325;SDS011;60278;47.980;18.780;2022-07-23T16:22:12;11.93;;;5.50;;
72325;SDS011;60278;47.980;18.780;2022-07-23T16:25:46;12.70;;;5.53;;
72325;SDS011;60278;47.980;18.780;2022-07-23T16:29:17;12.73;;;5.63;;
72325;SDS011;60278;47.980;18.780;2022-07-23T16:32:48;9.55;;;5.35;;
72325;SDS011;60278;47.980;18.780;2022-07-23T16:36:19;10.47;;;5.63;;
72325;SDS011;60278;47.980;18.780;2022-07-23T16:39:50;14.73;;;5.63;;
72325;SDS011;60278;47.980;18.780;2022-07-23T16:43:22;12.82;;;5.35;;
72325;SDS011;60278;47.980;18.780;2022-07-23T16:46:53;13.18;;;5.07;;
72325;SDS011;60278;47.980;18.780;2022-07-23T16:50:24;11.52;;;5.60;;
72325;SDS011;60278;47.980;18.780;2022-07-23T16:53:55;11.53;;;5.80;;
72325;SDS011;60278;47.980;18.780;2022-07-23T16:57:26;11.33;;;5.27;;
72325;SDS011;60278;47.980;18.780;2022-07-23T17:00:57;8.45;;;5.30;;
72325;SDS011;60278;47.980;18.780;2022-07-23T17:04:28;12.05;;;5.82;;
72325;SDS011;60278;47.980;18.780;2022-07-23T17:08:00;8.93;;;5.80;;
72325;SDS011;60278;47.980;18.780;2022-07-23T17:11:32;11.73;;;5.80;;
72325;SDS011;60278;47.980;18.780;2022-07-23T17:15:04;13.80;;;4.80;;
72325;SDS011;60278;47.980;18.780;2022-07-23T17:18:36;11.73;;;4.70;;
72325;SDS011;60278;47.980;18.780;2022-07-23T17:22:08;10.30;;;4.50;;
72325;SDS011;60278;47.980;18.780;2022-07-23T17:25:39;14.98;;;5.07;;
72325;SDS011;60278;47.980;18.780;2022-07-23T17:29:10;13.03;;;6.20;;
72325;SDS011;60278;47.980;18.780;2022-07-23T17:32:42;14.80;;;6.30;;
72325;SDS011;60278;47.980;18.780;2022-07-23T17:36:13;11.77;;;6.10;;
72325;SDS011;60278;47.980;18.780;2022-07-23T17:39:44;12.50;;;6.40;;
72325;SDS011;60278;47.980;18.780;2022-07-23T17:43:16;13.07;;;6.65;;
72325;SDS011;60278;47.980;18.780;2022-07-23T17:46:47;18.17;;;7.10;;
72325;SDS011;60278;47.980;18.780;2022-07-23T17:50:19;15.43;;;7.47;;
72325;SDS011;60278;47.980;18.780;2022-07-23T17:53:50;11.70;;;7.25;;
72325;SDS011;60278;47.980;18.780;2022-07-23T17:57:21;10.88;;;7.00;;
72325;SDS011;60278;47.980;18.780;2022-07-23T18:00:52;15.57;;;8.07;;
72325;SDS011;60278;47.980;18.780;2022-07-23T18:04:24;11.87;;;7.27;;
72325;SDS011;60278;47.980;18.780;2022-07-23T18:07:55;12.03;;;7.30;;
72325;SDS011;60278;47.980;18.780;2022-07-23T18:11:27;14.68;;;7.38;;
72325;SDS011;60278;47.980;18.780;2022-07-23T18:14:58;15.55;;;7.82;;
72325;SDS011;60278;47.980;18.780;2022-07-23T18:18:29;14.80;;;8.27;;
72325;SDS011;60278;47.980;18.780;2022-07-23T18:22:00;15.50;;;8.00;;
72325;SDS011;60278;47.980;18.780;2022-07-23T18:25:31;12.97;;;7.27;;
72325;SDS011;60278;47.980;18.780;2022-07-23T18:29:02;12.23;;;7.35;;
72325;SDS011;60278;47.980;18.780;2022-07-23T18:32:34;12.52;;;7.30;;
72325;SDS011;60278;47.980;18.780;2022-07-23T18:36:06;15.38;;;7.63;;
72325;SDS011;60278;47.980;18.780;2022-07-23T18:39:37;16.17;;;7.77;;
72325;SDS011;60278;47.980;18.780;2022-07-23T18:43:09;19.20;;;8.73;;
72325;SDS011;60278;47.980;18.780;2022-07-23T18:46:40;13.95;;;8.05;;
72325;SDS011;60278;47.980;18.780;2022-07-23T18:50:12;14.35;;;8.57;;
72325;SDS011;60278;47.980;18.780;2022-07-23T18:53:43;11.00;;;7.70;;
72325;SDS011;60278;47.980;18.780;2022-07-23T18:57:14;12.23;;;7.50;;
72325;SDS011;60278;47.980;18.780;2022-07-23T19:00:45;18.33;;;7.63;;
72325;SDS011;60278;47.980;18.780;2022-07-23T19:04:17;11.70;;;7.60;;
72325;SDS011;60278;47.980;18.780;2022-07-23T19:07:48;18.52;;;7.75;;
72325;SDS011;60278;47.980;18.780;2022-07-23T19:11:19;13.82;;;7.38;;
72325;SDS011;60278;47.980;18.780;2022-07-23T19:14:50;12.87;;;7.73;;
72325;SDS011;60278;47.980;18.780;2022-07-23T19:18:21;13.57;;;7.40;;
72325;SDS011;60278;47.980;18.780;2022-07-23T19:21:52;12.35;;;7.10;;
72325;SDS011;60278;47.980;18.780;2022-07-23T19:25:24;12.27;;;7.65;;
72325;SDS011;60278;47.980;18.780;2022-07-23T19:28:55;13.80;;;7.82;;
72325;SDS011;60278;47.980;18.780;2022-07-23T19:32:26;16.87;;;7.20;;
72325;SDS011;60278;47.980;18.780;2022-07-23T19:35:58;9.97;;;7.33;;
72325;SDS011;60278;47.980;18.780;2022-07-23T19:39:31;13.20;;;7.40;;
72325;SDS011;60278;47.980;18.780;2022-07-23T19:43:02;13.93;;;7.70;;
72325;SDS011;60278;47.980;18.780;2022-07-23T19:46:33;15.07;;;8.50;;
72325;SDS011;60278;47.980;18.780;2022-07-23T19:50:05;15.03;;;8.03;;
72325;SDS011;60278;47.980;18.780;2022-07-23T19:53:36;19.70;;;7.50;;
72325;SDS011;60278;47.980;18.780;2022-07-23T19:57:07;20.20;;;7.75;;
72325;SDS011;60278;47.980;18.780;2022-07-23T20:00:38;12.73;;;7.28;;
72325;SDS011;60278;47.980;18.780;2022-07-23T20:04:09;13.68;;;6.85;;
72325;SDS011;60278;47.980;18.780;2022-07-23T20:07:40;11.37;;;7.10;;
72325;SDS011;60278;47.980;18.780;2022-07-23T20:11:11;12.40;;;7.40;;
72325;SDS011;60278;47.980;18.780;2022-07-23T20:14:42;12.05;;;7.70;;
72325;SDS011;60278;47.980;18.780;2022-07-23T20:18:14;29.77;;;12.57;;
72325;SDS011;60278;47.980;18.780;2022-07-23T20:21:45;15.00;;;7.32;;
72325;SDS011;60278;47.980;18.780;2022-07-23T20:25:17;12.00;;;7.40;;
72325;SDS011;60278;47.980;18.780;2022-07-23T20:28:48;15.80;;;7.93;;
72325;SDS011;60278;47.980;18.780;2022-07-23T20:32:19;13.35;;;7.60;;
72325;SDS011;60278;47.980;18.780;2022-07-23T20:35:50;12.95;;;7.28;;
72325;SDS011;60278;47.980;18.780;2022-07-23T20:39:21;10.98;;;7.80;;
72325;SDS011;60278;47.980;18.780;2022-07-23T20:42:52;11.67;;;7.30;;
72325;SDS011;60278;47.980;18.780;2022-07-23T20:46:23;11.75;;;7.22;;
72325;SDS011;60278;47.980;18.780;2022-07-23T20:49:54;13.73;;;7.35;;
72325;SDS011;60278;47.980;18.780;2022-07-23T20:53:25;12.60;;;8.65;;
72325;SDS011;60278;47.980;18.780;2022-07-23T20:56:57;17.73;;;8.02;;
72325;SDS011;60278;47.980;18.780;2022-07-23T21:00:28;14.27;;;8.10;;
72325;SDS011;60278;47.980;18.780;2022-07-23T21:03:59;13.05;;;8.00;;
72325;SDS011;60278;47.980;18.780;2022-07-23T21:07:30;12.93;;;7.75;;
72325;SDS011;60278;47.980;18.780;2022-07-23T21:11:01;12.43;;;8.30;;
72325;SDS011;60278;47.980;18.780;2022-07-23T21:14:33;23.63;;;9.30;;
72325;SDS011;60278;47.980;18.780;2022-07-23T21:18:04;10.67;;;7.57;;
72325;SDS011;60278;47.980;18.780;2022-07-23T21:21:36;12.48;;;7.88;;
72325;SDS011;60278;47.980;18.780;2022-07-23T21:25:07;13.20;;;8.43;;
72325;SDS011;60278;47.980;18.780;2022-07-23T21:28:39;15.95;;;8.80;;
72325;SDS011;60278;47.980;18.780;2022-07-23T21:32:10;17.95;;;8.00;;